sensor_id;sensor_type;location;lat;lon;timestamp;P1;durP1;ratioP1;P2;durP2;ratioP2
18090;SDS011;9172;49.948;9.208;2024-01-16T00:01:14;2.80;;;1.80;;
18090;SDS011;9172;49.948;9.208;2024-01-16T00:03:44;3.70;;;2.00;;
18090;SDS011;9172;49.948;9.208;2024-01-16T00:06:12;5.67;;;2.00;;
18090;SDS011;9172;49.948;9.208;2024-01-16T00:08:41;2.63;;;2.00;;
18090;SDS011;9172;49.948;9.208;2024-01-16T00:11:09;3.30;;;2.27;;
18090;SDS011;9172;49.948;9.208;2024-01-16T00:13:38;10.50;;;2.43;;
18090;SDS011;9172;49.948;9.208;2024-01-16T00:16:06;4.53;;;1.90;;
18090;SDS011;9172;49.948;9.208;2024-01-16T00:18:35;4.67;;;2.20;;
18090;SDS011;9172;49.948;9.208;2024-01-16T00:21:04;9.77;;;2.33;;
18090;SDS011;9172;49.948;9.208;2024-01-16T00:23:45;6.40;;;2.50;;
18090;SDS011;9172;49.948;9.208;2024-01-16T00:29:08;4.13;;;2.47;;
18090;SDS011;9172;49.948;9.208;2024-01-16T00:34:29;8.63;;;2.30;;
18090;SDS011;9172;49.948;9.208;2024-01-16T00:37:10;7.60;;;2.60;;
18090;SDS011;9172;49.948;9.208;2024-01-16T00:39:38;3.83;;;2.20;;
18090;SDS011;9172;49.948;9.208;2024-01-16T00:42:07;10.10;;;2.27;;
18090;SDS011;9172;49.948;9.208;2024-01-16T00:44:36;2.70;;;2.00;;
18090;SDS011;9172;49.948;9.208;2024-01-16T00:47:04;3.23;;;2.07;;
18090;SDS011;9172;49.948;9.208;2024-01-16T00:49:33;3.93;;;2.13;;
18090;SDS011;9172;49.948;9.208;2024-01-16T00:52:04;8.60;;;2.43;;
18090;SDS011;9172;49.948;9.208;2024-01-16T00:54:33;3.50;;;2.10;;
18090;SDS011;9172;49.948;9.208;2024-01-16T00:57:02;4.20;;;2.10;;
18090;SDS011;9172;49.948;9.208;2024-01-16T00:59:31;5.03;;;2.70;;
18090;SDS011;9172;49.948;9.208;2024-01-16T01:01:59;4.83;;;2.20;;
18090;SDS011;9172;49.948;9.208;2024-01-16T01:04:29;4.47;;;2.10;;
18090;SDS011;9172;49.948;9.208;2024-01-16T01:07:19;5.63;;;2.20;;
18090;SDS011;9172;49.948;9.208;2024-01-16T01:09:49;6.93;;;2.50;;
18090;SDS011;9172;49.948;9.208;2024-01-16T01:12:18;4.73;;;2.23;;
18090;SDS011;9172;49.948;9.208;2024-01-16T01:14:49;5.23;;;2.30;;
18090;SDS011;9172;49.948;9.208;2024-01-16T01:17:18;12.93;;;2.20;;
18090;SDS011;9172;49.948;9.208;2024-01-16T01:19:47;3.50;;;2.33;;
18090;SDS011;9172;49.948;9.208;2024-01-16T01:22:15;3.80;;;2.50;;
18090;SDS011;9172;49.948;9.208;2024-01-16T01:24:44;7.20;;;2.37;;
18090;SDS011;9172;49.948;9.208;2024-01-16T01:27:12;8.37;;;2.47;;
18090;SDS011;9172;49.948;9.208;2024-01-16T01:29:41;7.57;;;2.53;;
18090;SDS011;9172;49.948;9.208;2024-01-16T01:32:09;3.53;;;2.33;;
18090;SDS011;9172;49.948;9.208;2024-01-16T01:34:38;3.80;;;2.47;;
18090;SDS011;9172;49.948;9.208;2024-01-16T01:37:09;6.73;;;2.27;;
18090;SDS011;9172;49.948;9.208;2024-01-16T01:39:37;2.43;;;2.10;;
18090;SDS011;9172;49.948;9.208;2024-01-16T01:42:06;7.43;;;2.80;;
18090;SDS011;9172;49.948;9.208;2024-01-16T01:44:34;9.37;;;2.90;;
18090;SDS011;9172;49.948;9.208;2024-01-16T01:47:03;8.67;;;2.70;;
18090;SDS011;9172;49.948;9.208;2024-01-16T01:49:51;4.20;;;2.57;;
18090;SDS011;9172;49.948;9.208;2024-01-16T01:52:24;6.33;;;2.77;;
18090;SDS011;9172;49.948;9.208;2024-01-16T01:54:54;6.70;;;2.57;;
18090;SDS011;9172;49.948;9.208;2024-01-16T01:57:22;6.33;;;2.70;;
18090;SDS011;9172;49.948;9.208;2024-01-16T01:59:51;7.57;;;2.40;;
18090;SDS011;9172;49.948;9.208;2024-01-16T02:02:20;4.27;;;2.30;;
18090;SDS011;9172;49.948;9.208;2024-01-16T02:04:49;2.77;;;2.07;;
18090;SDS011;9172;49.948;9.208;2024-01-16T02:07:18;7.10;;;2.47;;
18090;SDS011;9172;49.948;9.208;2024-01-16T02:09:47;5.07;;;2.33;;
18090;SDS011;9172;49.948;9.208;2024-01-16T02:12:16;4.90;;;2.20;;
18090;SDS011;9172;49.948;9.208;2024-01-16T02:14:45;3.87;;;2.10;;
18090;SDS011;9172;49.948;9.208;2024-01-16T02:17:13;10.50;;;2.57;;
18090;SDS011;9172;49.948;9.208;2024-01-16T02:19:42;5.37;;;2.20;;
18090;SDS011;9172;49.948;9.208;2024-01-16T02:22:11;4.67;;;2.60;;
18090;SDS011;9172;49.948;9.208;2024-01-16T02:24:42;6.00;;;2.30;;
18090;SDS011;9172;49.948;9.208;2024-01-16T02:27:11;8.67;;;2.77;;
18090;SDS011;9172;49.948;9.208;2024-01-16T02:29:41;5.97;;;2.67;;
18090;SDS011;9172;49.948;9.208;2024-01-16T02:32:10;10.73;;;3.47;;
18090;SDS011;9172;49.948;9.208;2024-01-16T02:34:42;6.70;;;2.70;;
18090;SDS011;9172;49.948;9.208;2024-01-16T02:37:10;6.40;;;2.77;;
18090;SDS011;9172;49.948;9.208;2024-01-16T02:39:39;6.10;;;3.43;;
18090;SDS011;9172;49.948;9.208;2024-01-16T02:42:07;3.43;;;2.60;;
18090;SDS011;9172;49.948;9.208;2024-01-16T02:44:36;5.83;;;3.20;;
18090;SDS011;9172;49.948;9.208;2024-01-16T02:47:04;6.87;;;2.87;;
18090;SDS011;9172;49.948;9.208;2024-01-16T02:49:33;5.67;;;2.40;;
18090;SDS011;9172;49.948;9.208;2024-01-16T02:52:04;4.97;;;2.93;;
18090;SDS011;9172;49.948;9.208;2024-01-16T02:54:33;7.03;;;3.20;;
18090;SDS011;9172;49.948;9.208;2024-01-16T02:57:01;3.57;;;2.33;;
18090;SDS011;9172;49.948;9.208;2024-01-16T02:59:30;6.27;;;3.10;;
18090;SDS011;9172;49.948;9.208;2024-01-16T03:01:59;5.17;;;2.60;;
18090;SDS011;9172;49.948;9.208;2024-01-16T03:04:28;4.93;;;3.47;;
18090;SDS011;9172;49.948;9.208;2024-01-16T03:06:57;7.70;;;3.37;;
18090;SDS011;9172;49.948;9.208;2024-01-16T03:09:26;4.70;;;3.23;;
18090;SDS011;9172;49.948;9.208;2024-01-16T03:11:55;12.07;;;3.13;;
18090;SDS011;9172;49.948;9.208;2024-01-16T03:14:24;9.33;;;3.50;;
18090;SDS011;9172;49.948;9.208;2024-01-16T03:16:52;7.83;;;3.50;;
18090;SDS011;9172;49.948;9.208;2024-01-16T03:19:21;3.03;;;2.30;;
18090;SDS011;9172;49.948;9.208;2024-01-16T03:21:50;9.70;;;3.73;;
18090;SDS011;9172;49.948;9.208;2024-01-16T03:24:18;11.23;;;3.37;;
18090;SDS011;9172;49.948;9.208;2024-01-16T03:26:47;5.17;;;2.67;;
18090;SDS011;9172;49.948;9.208;2024-01-16T03:29:16;6.03;;;2.77;;
18090;SDS011;9172;49.948;9.208;2024-01-16T03:31:44;6.97;;;2.97;;
18090;SDS011;9172;49.948;9.208;2024-01-16T03:34:14;5.83;;;3.30;;
18090;SDS011;9172;49.948;9.208;2024-01-16T03:36:44;5.50;;;3.33;;
18090;SDS011;9172;49.948;9.208;2024-01-16T03:39:13;5.70;;;2.97;;
18090;SDS011;9172;49.948;9.208;2024-01-16T03:41:41;7.37;;;3.83;;
18090;SDS011;9172;49.948;9.208;2024-01-16T03:44:10;12.43;;;3.40;;
18090;SDS011;9172;49.948;9.208;2024-01-16T03:46:38;9.63;;;3.17;;
18090;SDS011;9172;49.948;9.208;2024-01-16T03:49:07;6.00;;;3.17;;
18090;SDS011;9172;49.948;9.208;2024-01-16T03:51:36;4.03;;;2.90;;
18090;SDS011;9172;49.948;9.208;2024-01-16T03:54:04;5.37;;;3.37;;
18090;SDS011;9172;49.948;9.208;2024-01-16T03:56:53;5.70;;;3.10;;
18090;SDS011;9172;49.948;9.208;2024-01-16T03:59:45;3.93;;;2.83;;
18090;SDS011;9172;49.948;9.208;2024-01-16T04:02:15;8.10;;;3.30;;
18090;SDS011;9172;49.948;9.208;2024-01-16T04:05:00;4.90;;;2.83;;
18090;SDS011;9172;49.948;9.208;2024-01-16T04:07:32;4.73;;;2.97;;
18090;SDS011;9172;49.948;9.208;2024-01-16T04:10:01;7.80;;;3.67;;
18090;SDS011;9172;49.948;9.208;2024-01-16T04:12:31;5.80;;;3.13;;
18090;SDS011;9172;49.948;9.208;2024-01-16T04:15:00;7.80;;;3.17;;
18090;SDS011;9172;49.948;9.208;2024-01-16T04:17:28;6.30;;;3.53;;
18090;SDS011;9172;49.948;9.208;2024-01-16T04:19:57;6.03;;;2.93;;
18090;SDS011;9172;49.948;9.208;2024-01-16T04:22:26;10.83;;;3.70;;
18090;SDS011;9172;49.948;9.208;2024-01-16T04:24:54;6.40;;;3.30;;
18090;SDS011;9172;49.948;9.208;2024-01-16T04:27:23;7.27;;;3.17;;
18090;SDS011;9172;49.948;9.208;2024-01-16T04:29:52;4.70;;;3.30;;
18090;SDS011;9172;49.948;9.208;2024-01-16T04:32:20;5.07;;;3.40;;
18090;SDS011;9172;49.948;9.208;2024-01-16T04:34:49;6.10;;;3.50;;
18090;SDS011;9172;49.948;9.208;2024-01-16T04:37:17;5.43;;;3.20;;
18090;SDS011;9172;49.948;9.208;2024-01-16T04:39:46;6.97;;;2.83;;
18090;SDS011;9172;49.948;9.208;2024-01-16T04:42:15;6.93;;;3.57;;
18090;SDS011;9172;49.948;9.208;2024-01-16T04:44:44;7.73;;;3.87;;
18090;SDS011;9172;49.948;9.208;2024-01-16T04:47:12;4.87;;;3.40;;
18090;SDS011;9172;49.948;9.208;2024-01-16T04:49:42;8.53;;;3.03;;
18090;SDS011;9172;49.948;9.208;2024-01-16T04:52:11;7.20;;;3.23;;
18090;SDS011;9172;49.948;9.208;2024-01-16T04:54:40;8.23;;;4.10;;
18090;SDS011;9172;49.948;9.208;2024-01-16T04:57:08;8.87;;;3.50;;
18090;SDS011;9172;49.948;9.208;2024-01-16T04:59:37;5.60;;;3.60;;
18090;SDS011;9172;49.948;9.208;2024-01-16T05:02:05;8.13;;;3.13;;
18090;SDS011;9172;49.948;9.208;2024-01-16T05:04:37;7.03;;;3.70;;
18090;SDS011;9172;49.948;9.208;2024-01-16T05:07:05;10.53;;;3.20;;
18090;SDS011;9172;49.948;9.208;2024-01-16T05:09:34;12.70;;;3.80;;
18090;SDS011;9172;49.948;9.208;2024-01-16T05:12:03;6.27;;;3.73;;
18090;SDS011;9172;49.948;9.208;2024-01-16T05:14:32;5.67;;;2.80;;
18090;SDS011;9172;49.948;9.208;2024-01-16T05:17:01;9.37;;;3.33;;
18090;SDS011;9172;49.948;9.208;2024-01-16T05:19:30;5.90;;;3.27;;
18090;SDS011;9172;49.948;9.208;2024-01-16T05:21:59;6.07;;;2.90;;
18090;SDS011;9172;49.948;9.208;2024-01-16T05:26:57;8.03;;;3.77;;
18090;SDS011;9172;49.948;9.208;2024-01-16T05:29:31;6.50;;;3.40;;
18090;SDS011;9172;49.948;9.208;2024-01-16T05:32:14;7.80;;;4.03;;
18090;SDS011;9172;49.948;9.208;2024-01-16T05:37:56;4.97;;;2.70;;
18090;SDS011;9172;49.948;9.208;2024-01-16T05:40:27;6.73;;;2.93;;
18090;SDS011;9172;49.948;9.208;2024-01-16T05:42:59;7.13;;;3.17;;
18090;SDS011;9172;49.948;9.208;2024-01-16T05:45:29;8.63;;;3.10;;
18090;SDS011;9172;49.948;9.208;2024-01-16T05:47:59;4.80;;;2.67;;
18090;SDS011;9172;49.948;9.208;2024-01-16T05:50:29;5.00;;;3.10;;
18090;SDS011;9172;49.948;9.208;2024-01-16T05:52:58;8.70;;;3.30;;
18090;SDS011;9172;49.948;9.208;2024-01-16T05:55:27;5.47;;;2.77;;
18090;SDS011;9172;49.948;9.208;2024-01-16T05:57:58;7.47;;;3.20;;
18090;SDS011;9172;49.948;9.208;2024-01-16T06:00:26;7.53;;;3.10;;
18090;SDS011;9172;49.948;9.208;2024-01-16T06:02:55;7.70;;;2.90;;
18090;SDS011;9172;49.948;9.208;2024-01-16T06:05:23;13.50;;;3.83;;
18090;SDS011;9172;49.948;9.208;2024-01-16T06:07:52;5.07;;;3.00;;
18090;SDS011;9172;49.948;9.208;2024-01-16T06:10:22;7.50;;;3.00;;
18090;SDS011;9172;49.948;9.208;2024-01-16T06:12:50;7.57;;;2.77;;
18090;SDS011;9172;49.948;9.208;2024-01-16T06:15:25;5.03;;;2.67;;
18090;SDS011;9172;49.948;9.208;2024-01-16T06:17:54;4.20;;;2.77;;
18090;SDS011;9172;49.948;9.208;2024-01-16T06:20:23;4.37;;;2.87;;
18090;SDS011;9172;49.948;9.208;2024-01-16T06:22:52;5.67;;;3.03;;
18090;SDS011;9172;49.948;9.208;2024-01-16T06:25:20;7.23;;;3.17;;
18090;SDS011;9172;49.948;9.208;2024-01-16T06:27:49;8.57;;;3.10;;
18090;SDS011;9172;49.948;9.208;2024-01-16T06:30:17;9.30;;;3.03;;
18090;SDS011;9172;49.948;9.208;2024-01-16T06:32:47;4.13;;;2.70;;
18090;SDS011;9172;49.948;9.208;2024-01-16T06:35:15;10.83;;;3.10;;
18090;SDS011;9172;49.948;9.208;2024-01-16T06:37:44;4.70;;;2.37;;
18090;SDS011;9172;49.948;9.208;2024-01-16T06:40:13;5.10;;;2.60;;
18090;SDS011;9172;49.948;9.208;2024-01-16T06:42:42;8.37;;;2.60;;
18090;SDS011;9172;49.948;9.208;2024-01-16T06:45:11;11.07;;;3.27;;
18090;SDS011;9172;49.948;9.208;2024-01-16T06:47:41;3.53;;;2.53;;
18090;SDS011;9172;49.948;9.208;2024-01-16T06:50:10;8.70;;;2.63;;
18090;SDS011;9172;49.948;9.208;2024-01-16T06:52:38;4.87;;;3.33;;
18090;SDS011;9172;49.948;9.208;2024-01-16T06:55:07;5.43;;;2.60;;
18090;SDS011;9172;49.948;9.208;2024-01-16T06:57:35;3.33;;;2.63;;
18090;SDS011;9172;49.948;9.208;2024-01-16T07:00:06;7.13;;;3.03;;
18090;SDS011;9172;49.948;9.208;2024-01-16T07:02:35;3.73;;;2.40;;
18090;SDS011;9172;49.948;9.208;2024-01-16T07:05:04;8.57;;;2.97;;
18090;SDS011;9172;49.948;9.208;2024-01-16T07:07:33;7.37;;;3.03;;
18090;SDS011;9172;49.948;9.208;2024-01-16T07:10:02;8.00;;;3.03;;
18090;SDS011;9172;49.948;9.208;2024-01-16T07:12:34;10.00;;;3.40;;
18090;SDS011;9172;49.948;9.208;2024-01-16T07:15:03;3.43;;;2.27;;
18090;SDS011;9172;49.948;9.208;2024-01-16T07:17:33;3.97;;;2.77;;
18090;SDS011;9172;49.948;9.208;2024-01-16T07:20:02;8.87;;;2.47;;
18090;SDS011;9172;49.948;9.208;2024-01-16T07:22:32;3.57;;;2.70;;
18090;SDS011;9172;49.948;9.208;2024-01-16T07:25:00;6.97;;;3.20;;
18090;SDS011;9172;49.948;9.208;2024-01-16T07:27:29;6.50;;;3.57;;
18090;SDS011;9172;49.948;9.208;2024-01-16T07:29:57;7.13;;;3.67;;
18090;SDS011;9172;49.948;9.208;2024-01-16T07:32:26;7.00;;;3.50;;
18090;SDS011;9172;49.948;9.208;2024-01-16T07:34:55;11.50;;;3.67;;
18090;SDS011;9172;49.948;9.208;2024-01-16T07:37:23;10.63;;;3.57;;
18090;SDS011;9172;49.948;9.208;2024-01-16T07:39:52;7.53;;;3.30;;
18090;SDS011;9172;49.948;9.208;2024-01-16T07:42:20;6.60;;;3.57;;
18090;SDS011;9172;49.948;9.208;2024-01-16T07:44:49;9.93;;;3.90;;
18090;SDS011;9172;49.948;9.208;2024-01-16T07:47:18;5.67;;;3.40;;
18090;SDS011;9172;49.948;9.208;2024-01-16T07:49:47;8.60;;;3.63;;
18090;SDS011;9172;49.948;9.208;2024-01-16T07:52:15;7.73;;;3.90;;
18090;SDS011;9172;49.948;9.208;2024-01-16T07:54:44;8.10;;;3.93;;
18090;SDS011;9172;49.948;9.208;2024-01-16T07:57:13;8.70;;;3.70;;
18090;SDS011;9172;49.948;9.208;2024-01-16T07:59:41;8.63;;;3.63;;
18090;SDS011;9172;49.948;9.208;2024-01-16T08:02:10;4.57;;;3.33;;
18090;SDS011;9172;49.948;9.208;2024-01-16T08:04:38;5.80;;;3.53;;
18090;SDS011;9172;49.948;9.208;2024-01-16T08:07:07;5.87;;;2.73;;
18090;SDS011;9172;49.948;9.208;2024-01-16T08:09:35;8.60;;;3.70;;
18090;SDS011;9172;49.948;9.208;2024-01-16T08:12:04;9.00;;;3.47;;
18090;SDS011;9172;49.948;9.208;2024-01-16T08:14:34;5.67;;;3.13;;
18090;SDS011;9172;49.948;9.208;2024-01-16T08:17:02;6.50;;;3.50;;
18090;SDS011;9172;49.948;9.208;2024-01-16T08:19:31;10.47;;;3.73;;
18090;SDS011;9172;49.948;9.208;2024-01-16T08:22:00;6.67;;;3.13;;
18090;SDS011;9172;49.948;9.208;2024-01-16T08:24:29;5.20;;;2.90;;
18090;SDS011;9172;49.948;9.208;2024-01-16T08:26:58;5.17;;;3.33;;
18090;SDS011;9172;49.948;9.208;2024-01-16T08:29:26;11.67;;;3.70;;
18090;SDS011;9172;49.948;9.208;2024-01-16T08:31:55;6.53;;;3.30;;
18090;SDS011;9172;49.948;9.208;2024-01-16T08:34:23;4.97;;;3.50;;
18090;SDS011;9172;49.948;9.208;2024-01-16T08:36:52;6.67;;;3.37;;
18090;SDS011;9172;49.948;9.208;2024-01-16T08:39:22;6.87;;;3.80;;
18090;SDS011;9172;49.948;9.208;2024-01-16T08:41:51;7.37;;;3.30;;
18090;SDS011;9172;49.948;9.208;2024-01-16T08:44:19;8.40;;;4.10;;
18090;SDS011;9172;49.948;9.208;2024-01-16T08:46:48;4.50;;;3.17;;
18090;SDS011;9172;49.948;9.208;2024-01-16T08:49:17;10.67;;;3.90;;
18090;SDS011;9172;49.948;9.208;2024-01-16T08:51:46;12.80;;;4.03;;
18090;SDS011;9172;49.948;9.208;2024-01-16T08:54:14;6.13;;;3.80;;
18090;SDS011;9172;49.948;9.208;2024-01-16T08:56:43;7.33;;;3.77;;
18090;SDS011;9172;49.948;9.208;2024-01-16T08:59:11;6.50;;;3.50;;
18090;SDS011;9172;49.948;9.208;2024-01-16T09:01:40;6.60;;;3.20;;
18090;SDS011;9172;49.948;9.208;2024-01-16T09:04:08;8.40;;;4.03;;
18090;SDS011;9172;49.948;9.208;2024-01-16T09:06:38;5.83;;;3.73;;
18090;SDS011;9172;49.948;9.208;2024-01-16T09:09:06;10.40;;;3.57;;
18090;SDS011;9172;49.948;9.208;2024-01-16T09:11:35;5.97;;;3.27;;
18090;SDS011;9172;49.948;9.208;2024-01-16T09:14:04;9.73;;;3.70;;
18090;SDS011;9172;49.948;9.208;2024-01-16T09:16:32;6.57;;;4.00;;
18090;SDS011;9172;49.948;9.208;2024-01-16T09:19:01;5.33;;;3.20;;
18090;SDS011;9172;49.948;9.208;2024-01-16T09:21:30;4.80;;;3.20;;
18090;SDS011;9172;49.948;9.208;2024-01-16T09:23:58;7.50;;;2.93;;
18090;SDS011;9172;49.948;9.208;2024-01-16T09:26:26;5.43;;;3.23;;
18090;SDS011;9172;49.948;9.208;2024-01-16T09:28:57;4.43;;;3.23;;
18090;SDS011;9172;49.948;9.208;2024-01-16T09:31:25;10.83;;;3.40;;
18090;SDS011;9172;49.948;9.208;2024-01-16T09:33:54;7.23;;;4.10;;
18090;SDS011;9172;49.948;9.208;2024-01-16T09:36:22;8.97;;;3.50;;
18090;SDS011;9172;49.948;9.208;2024-01-16T09:38:51;5.90;;;3.30;;
18090;SDS011;9172;49.948;9.208;2024-01-16T09:41:19;4.50;;;2.40;;
18090;SDS011;9172;49.948;9.208;2024-01-16T09:43:48;7.93;;;3.40;;
18090;SDS011;9172;49.948;9.208;2024-01-16T09:46:18;5.40;;;3.17;;
18090;SDS011;9172;49.948;9.208;2024-01-16T09:48:49;6.43;;;3.17;;
18090;SDS011;9172;49.948;9.208;2024-01-16T09:51:21;9.67;;;3.20;;
18090;SDS011;9172;49.948;9.208;2024-01-16T09:53:49;9.70;;;3.10;;
18090;SDS011;9172;49.948;9.208;2024-01-16T09:56:20;7.53;;;3.57;;
18090;SDS011;9172;49.948;9.208;2024-01-16T09:58:52;8.67;;;3.70;;
18090;SDS011;9172;49.948;9.208;2024-01-16T10:01:29;7.10;;;3.97;;
18090;SDS011;9172;49.948;9.208;2024-01-16T10:04:00;10.80;;;3.17;;
18090;SDS011;9172;49.948;9.208;2024-01-16T10:06:28;10.30;;;3.20;;
18090;SDS011;9172;49.948;9.208;2024-01-16T10:08:59;6.77;;;3.20;;
18090;SDS011;9172;49.948;9.208;2024-01-16T10:11:28;7.33;;;3.00;;
18090;SDS011;9172;49.948;9.208;2024-01-16T10:13:58;5.23;;;3.03;;
18090;SDS011;9172;49.948;9.208;2024-01-16T10:16:42;10.00;;;3.60;;
18090;SDS011;9172;49.948;9.208;2024-01-16T10:19:31;4.70;;;2.87;;
18090;SDS011;9172;49.948;9.208;2024-01-16T10:22:03;4.83;;;3.00;;
18090;SDS011;9172;49.948;9.208;2024-01-16T10:24:33;10.23;;;3.27;;
18090;SDS011;9172;49.948;9.208;2024-01-16T10:27:01;10.30;;;3.57;;
18090;SDS011;9172;49.948;9.208;2024-01-16T10:29:30;11.87;;;3.07;;
18090;SDS011;9172;49.948;9.208;2024-01-16T10:31:59;8.20;;;3.20;;
18090;SDS011;9172;49.948;9.208;2024-01-16T10:34:28;8.10;;;2.80;;
18090;SDS011;9172;49.948;9.208;2024-01-16T10:36:58;8.33;;;3.07;;
18090;SDS011;9172;49.948;9.208;2024-01-16T10:39:27;4.57;;;2.67;;
18090;SDS011;9172;49.948;9.208;2024-01-16T10:41:56;10.47;;;3.77;;
18090;SDS011;9172;49.948;9.208;2024-01-16T10:44:25;4.03;;;2.23;;
18090;SDS011;9172;49.948;9.208;2024-01-16T10:47:02;5.00;;;2.80;;
18090;SDS011;9172;49.948;9.208;2024-01-16T10:49:39;6.00;;;3.10;;
18090;SDS011;9172;49.948;9.208;2024-01-16T10:52:08;4.03;;;2.63;;
18090;SDS011;9172;49.948;9.208;2024-01-16T10:54:48;9.60;;;2.90;;
18090;SDS011;9172;49.948;9.208;2024-01-16T10:57:18;6.80;;;2.47;;
18090;SDS011;9172;49.948;9.208;2024-01-16T10:59:48;6.53;;;2.93;;
18090;SDS011;9172;49.948;9.208;2024-01-16T11:02:20;8.90;;;2.70;;
18090;SDS011;9172;49.948;9.208;2024-01-16T11:04:51;5.73;;;2.67;;
18090;SDS011;9172;49.948;9.208;2024-01-16T11:07:21;6.47;;;2.70;;
18090;SDS011;9172;49.948;9.208;2024-01-16T11:09:52;8.60;;;2.80;;
18090;SDS011;9172;49.948;9.208;2024-01-16T11:12:22;6.90;;;3.50;;
18090;SDS011;9172;49.948;9.208;2024-01-16T11:14:52;5.17;;;2.80;;
18090;SDS011;9172;49.948;9.208;2024-01-16T11:17:23;11.20;;;3.07;;
18090;SDS011;9172;49.948;9.208;2024-01-16T11:19:52;6.60;;;2.73;;
18090;SDS011;9172;49.948;9.208;2024-01-16T11:22:21;7.40;;;2.70;;
18090;SDS011;9172;49.948;9.208;2024-01-16T11:25:07;8.00;;;2.80;;
18090;SDS011;9172;49.948;9.208;2024-01-16T11:27:36;5.87;;;2.30;;
18090;SDS011;9172;49.948;9.208;2024-01-16T11:30:06;10.83;;;2.93;;
18090;SDS011;9172;49.948;9.208;2024-01-16T11:32:37;4.43;;;2.60;;
18090;SDS011;9172;49.948;9.208;2024-01-16T11:35:07;3.60;;;2.27;;
18090;SDS011;9172;49.948;9.208;2024-01-16T11:37:38;13.20;;;3.03;;
18090;SDS011;9172;49.948;9.208;2024-01-16T11:40:22;6.43;;;2.70;;
18090;SDS011;9172;49.948;9.208;2024-01-16T11:42:54;4.07;;;2.30;;
18090;SDS011;9172;49.948;9.208;2024-01-16T11:48:19;3.50;;;2.37;;
18090;SDS011;9172;49.948;9.208;2024-01-16T11:50:48;7.70;;;3.10;;
18090;SDS011;9172;49.948;9.208;2024-01-16T11:53:32;7.43;;;3.30;;
18090;SDS011;9172;49.948;9.208;2024-01-16T11:56:13;3.33;;;2.30;;
18090;SDS011;9172;49.948;9.208;2024-01-16T11:58:57;9.57;;;2.60;;
18090;SDS011;9172;49.948;9.208;2024-01-16T12:01:36;3.60;;;2.37;;
18090;SDS011;9172;49.948;9.208;2024-01-16T12:04:05;6.27;;;2.10;;
18090;SDS011;9172;49.948;9.208;2024-01-16T12:06:36;10.00;;;3.03;;
18090;SDS011;9172;49.948;9.208;2024-01-16T12:09:11;11.60;;;2.73;;
18090;SDS011;9172;49.948;9.208;2024-01-16T12:11:40;3.13;;;2.10;;
18090;SDS011;9172;49.948;9.208;2024-01-16T12:14:11;4.23;;;2.00;;
18090;SDS011;9172;49.948;9.208;2024-01-16T12:16:40;3.63;;;2.27;;
18090;SDS011;9172;49.948;9.208;2024-01-16T12:19:09;6.03;;;2.60;;
18090;SDS011;9172;49.948;9.208;2024-01-16T12:21:38;4.10;;;2.47;;
18090;SDS011;9172;49.948;9.208;2024-01-16T12:24:08;4.77;;;2.13;;
18090;SDS011;9172;49.948;9.208;2024-01-16T12:26:37;9.00;;;2.23;;
18090;SDS011;9172;49.948;9.208;2024-01-16T12:29:07;8.23;;;2.40;;
18090;SDS011;9172;49.948;9.208;2024-01-16T12:31:36;5.63;;;2.27;;
18090;SDS011;9172;49.948;9.208;2024-01-16T12:34:05;7.60;;;2.17;;
18090;SDS011;9172;49.948;9.208;2024-01-16T12:36:34;4.83;;;2.50;;
18090;SDS011;9172;49.948;9.208;2024-01-16T12:39:04;3.53;;;1.90;;
18090;SDS011;9172;49.948;9.208;2024-01-16T12:41:37;6.97;;;2.10;;
18090;SDS011;9172;49.948;9.208;2024-01-16T12:44:13;7.13;;;2.03;;
18090;SDS011;9172;49.948;9.208;2024-01-16T12:46:42;3.53;;;2.13;;
18090;SDS011;9172;49.948;9.208;2024-01-16T12:49:11;5.00;;;2.10;;
18090;SDS011;9172;49.948;9.208;2024-01-16T12:51:40;3.40;;;1.93;;
18090;SDS011;9172;49.948;9.208;2024-01-16T12:54:12;3.07;;;1.80;;
18090;SDS011;9172;49.948;9.208;2024-01-16T12:56:42;7.43;;;2.70;;
18090;SDS011;9172;49.948;9.208;2024-01-16T12:59:11;3.30;;;1.93;;
18090;SDS011;9172;49.948;9.208;2024-01-16T13:01:40;3.57;;;1.93;;
18090;SDS011;9172;49.948;9.208;2024-01-16T13:04:10;5.33;;;1.90;;
18090;SDS011;9172;49.948;9.208;2024-01-16T13:06:41;4.23;;;1.87;;
18090;SDS011;9172;49.948;9.208;2024-01-16T13:09:10;2.97;;;1.90;;
18090;SDS011;9172;49.948;9.208;2024-01-16T13:11:48;6.47;;;2.03;;
18090;SDS011;9172;49.948;9.208;2024-01-16T13:14:18;5.97;;;2.23;;
18090;SDS011;9172;49.948;9.208;2024-01-16T13:16:47;3.93;;;1.80;;
18090;SDS011;9172;49.948;9.208;2024-01-16T13:19:17;7.57;;;2.50;;
18090;SDS011;9172;49.948;9.208;2024-01-16T13:21:45;2.60;;;1.60;;
18090;SDS011;9172;49.948;9.208;2024-01-16T13:24:14;2.73;;;1.70;;
18090;SDS011;9172;49.948;9.208;2024-01-16T13:26:45;3.37;;;1.60;;
18090;SDS011;9172;49.948;9.208;2024-01-16T13:29:14;2.43;;;1.50;;
18090;SDS011;9172;49.948;9.208;2024-01-16T13:31:42;4.17;;;1.93;;
18090;SDS011;9172;49.948;9.208;2024-01-16T13:34:11;2.93;;;1.67;;
18090;SDS011;9172;49.948;9.208;2024-01-16T13:36:40;9.10;;;2.03;;
18090;SDS011;9172;49.948;9.208;2024-01-16T13:39:09;4.53;;;2.30;;
18090;SDS011;9172;49.948;9.208;2024-01-16T13:41:38;5.73;;;1.80;;
18090;SDS011;9172;49.948;9.208;2024-01-16T13:44:07;6.70;;;2.07;;
18090;SDS011;9172;49.948;9.208;2024-01-16T13:46:35;9.00;;;2.10;;
18090;SDS011;9172;49.948;9.208;2024-01-16T13:49:04;8.50;;;2.03;;
18090;SDS011;9172;49.948;9.208;2024-01-16T13:51:33;3.47;;;1.83;;
18090;SDS011;9172;49.948;9.208;2024-01-16T13:54:02;4.10;;;2.00;;
18090;SDS011;9172;49.948;9.208;2024-01-16T13:56:31;5.30;;;2.50;;
18090;SDS011;9172;49.948;9.208;2024-01-16T13:58:59;4.53;;;2.00;;
18090;SDS011;9172;49.948;9.208;2024-01-16T14:01:28;5.57;;;1.87;;
18090;SDS011;9172;49.948;9.208;2024-01-16T14:03:56;10.47;;;2.57;;
18090;SDS011;9172;49.948;9.208;2024-01-16T14:06:25;9.03;;;2.23;;
18090;SDS011;9172;49.948;9.208;2024-01-16T14:08:53;7.93;;;2.07;;
18090;SDS011;9172;49.948;9.208;2024-01-16T14:11:22;8.53;;;3.20;;
18090;SDS011;9172;49.948;9.208;2024-01-16T14:13:50;6.20;;;2.40;;
18090;SDS011;9172;49.948;9.208;2024-01-16T14:16:19;4.67;;;1.57;;
18090;SDS011;9172;49.948;9.208;2024-01-16T14:18:48;4.77;;;1.57;;
18090;SDS011;9172;49.948;9.208;2024-01-16T14:21:16;6.40;;;1.93;;
18090;SDS011;9172;49.948;9.208;2024-01-16T14:23:45;3.37;;;2.10;;
18090;SDS011;9172;49.948;9.208;2024-01-16T14:26:13;6.60;;;1.70;;
18090;SDS011;9172;49.948;9.208;2024-01-16T14:28:44;2.30;;;1.80;;
18090;SDS011;9172;49.948;9.208;2024-01-16T14:31:12;2.77;;;1.60;;
18090;SDS011;9172;49.948;9.208;2024-01-16T14:33:41;4.40;;;2.00;;
18090;SDS011;9172;49.948;9.208;2024-01-16T14:36:09;8.10;;;1.77;;
18090;SDS011;9172;49.948;9.208;2024-01-16T14:38:38;6.50;;;1.90;;
18090;SDS011;9172;49.948;9.208;2024-01-16T14:41:07;5.13;;;1.80;;
18090;SDS011;9172;49.948;9.208;2024-01-16T14:43:35;5.57;;;2.10;;
18090;SDS011;9172;49.948;9.208;2024-01-16T14:46:04;4.30;;;2.03;;
18090;SDS011;9172;49.948;9.208;2024-01-16T14:48:34;2.33;;;1.57;;
18090;SDS011;9172;49.948;9.208;2024-01-16T14:51:03;4.03;;;2.17;;
18090;SDS011;9172;49.948;9.208;2024-01-16T14:53:32;2.83;;;1.63;;
18090;SDS011;9172;49.948;9.208;2024-01-16T14:56:01;8.33;;;2.63;;
18090;SDS011;9172;49.948;9.208;2024-01-16T14:58:31;4.80;;;1.90;;
18090;SDS011;9172;49.948;9.208;2024-01-16T15:01:00;2.87;;;1.70;;
18090;SDS011;9172;49.948;9.208;2024-01-16T15:03:28;4.27;;;2.20;;
18090;SDS011;9172;49.948;9.208;2024-01-16T15:05:57;9.83;;;2.23;;
18090;SDS011;9172;49.948;9.208;2024-01-16T15:08:25;1.67;;;1.57;;
18090;SDS011;9172;49.948;9.208;2024-01-16T15:10:54;4.83;;;2.03;;
18090;SDS011;9172;49.948;9.208;2024-01-16T15:13:24;4.83;;;2.17;;
18090;SDS011;9172;49.948;9.208;2024-01-16T15:15:53;3.13;;;1.57;;
18090;SDS011;9172;49.948;9.208;2024-01-16T15:18:22;4.23;;;1.77;;
18090;SDS011;9172;49.948;9.208;2024-01-16T15:20:51;4.83;;;2.27;;
18090;SDS011;9172;49.948;9.208;2024-01-16T15:23:19;4.17;;;2.40;;
18090;SDS011;9172;49.948;9.208;2024-01-16T15:25:49;6.23;;;2.33;;
18090;SDS011;9172;49.948;9.208;2024-01-16T15:28:17;3.53;;;1.80;;
18090;SDS011;9172;49.948;9.208;2024-01-16T15:30:46;11.30;;;2.80;;